createdAt,value
2019-03-13T00:01:19.787Z,21.80
2019-03-13T00:03:51.482Z,23.70
2019-03-13T00:06:21.975Z,25.20
2019-03-13T00:08:52.159Z,27.90
2019-03-13T00:11:22.330Z,30.60
2019-03-13T00:13:52.463Z,34.60
2019-03-13T00:16:22.570Z,37.40
2019-03-13T00:18:52.717Z,39.10
2019-03-13T00:21:22.806Z,40.50
2019-03-13T00:23:53.277Z,43.30
2019-03-13T00:26:23.602Z,46.40
2019-03-13T00:28:56.008Z,47.40
2019-03-13T00:31:26.143Z,50.20
2019-03-13T00:33:56.664Z,48.10
2019-03-13T00:36:27.719Z,48.10
2019-03-13T00:38:57.862Z,48.80
2019-03-13T00:41:27.983Z,41.10
2019-03-13T00:43:58.690Z,39.70
2019-03-13T00:46:28.840Z,40.30
2019-03-13T00:48:58.947Z,40.60
2019-03-13T00:51:29.945Z,42.10
2019-03-13T00:54:00.088Z,42.40
2019-03-13T00:56:32.619Z,43.00
2019-03-13T00:59:03.407Z,39.20
2019-03-13T01:01:55.237Z,37.80
2019-03-13T01:04:32.915Z,39.50
2019-03-13T01:07:06.870Z,39.00
2019-03-13T01:09:37.389Z,39.60
2019-03-13T01:12:07.927Z,39.50
2019-03-13T01:14:38.464Z,41.40
2019-03-13T01:17:09.055Z,40.60
2019-03-13T01:19:39.195Z,40.70
2019-03-13T01:22:09.282Z,41.90
2019-03-13T01:24:40.211Z,43.80
2019-03-13T01:27:10.345Z,45.30
2019-03-13T01:29:40.503Z,47.10
2019-03-13T01:32:33.062Z,48.10
2019-03-13T01:35:19.164Z,47.80
2019-03-13T01:37:49.426Z,51.00
2019-03-13T01:40:20.454Z,51.00
2019-03-13T01:42:50.617Z,51.70
2019-03-13T01:45:21.202Z,50.90
2019-03-13T01:47:51.274Z,53.10
2019-03-13T01:50:21.846Z,53.60
2019-03-13T01:52:51.958Z,50.90
2019-03-13T01:55:22.068Z,52.60
2019-03-13T01:57:52.192Z,51.80
2019-03-13T02:00:24.986Z,49.50
2019-03-13T02:02:57.843Z,50.40
2019-03-13T02:05:30.233Z,50.40
2019-03-13T02:08:00.407Z,48.80
2019-03-13T02:10:30.512Z,48.00
2019-03-13T02:13:00.708Z,48.30
2019-03-13T02:15:31.773Z,48.70
2019-03-13T02:18:01.895Z,50.80
2019-03-13T02:20:35.059Z,47.70
2019-03-13T02:23:05.360Z,47.10
2019-03-13T02:25:36.959Z,47.30
2019-03-13T02:28:07.858Z,45.80
2019-03-13T02:30:48.229Z,44.70
2019-03-13T02:33:18.526Z,45.00
2019-03-13T02:35:48.634Z,44.60
2019-03-13T02:38:20.641Z,43.50
2019-03-13T02:40:50.742Z,43.90
2019-03-13T02:43:20.985Z,47.80
2019-03-13T02:45:51.125Z,52.50
2019-03-13T02:48:23.418Z,54.70
2019-03-13T02:50:54.673Z,60.30
2019-03-13T02:53:24.756Z,65.90
2019-03-13T02:55:55.541Z,68.30
2019-03-13T02:58:28.187Z,71.40
2019-03-13T03:01:36.509Z,78.70
2019-03-13T03:04:08.925Z,79.70
2019-03-13T03:06:39.052Z,81.40
2019-03-13T03:09:12.375Z,83.60
2019-03-13T03:11:42.526Z,87.40
2019-03-13T03:14:12.770Z,86.60
2019-03-13T03:16:42.861Z,89.10
2019-03-13T03:19:13.073Z,88.10
2019-03-13T03:21:43.186Z,88.60
2019-03-13T03:24:14.200Z,88.00
2019-03-13T03:26:44.387Z,85.70
2019-03-13T03:29:14.957Z,84.50
2019-03-13T03:31:45.946Z,86.30
2019-03-13T03:34:17.708Z,80.50
2019-03-13T03:36:47.897Z,78.90
2019-03-13T03:39:18.008Z,77.90
2019-03-13T03:41:49.187Z,79.00
2019-03-13T03:44:19.422Z,79.80
2019-03-13T03:46:49.566Z,78.20
2019-03-13T03:49:19.709Z,79.10
2019-03-13T03:51:53.394Z,78.90
2019-03-13T03:54:23.594Z,79.20
2019-03-13T03:56:53.879Z,78.50
2019-03-13T03:59:24.018Z,75.50
2019-03-13T04:01:54.571Z,79.00
2019-03-13T04:04:25.336Z,78.70
2019-03-13T04:06:55.652Z,78.70
2019-03-13T04:09:25.805Z,74.60
2019-03-13T04:11:56.809Z,75.00
2019-03-13T04:14:30.053Z,75.10
2019-03-13T04:17:01.060Z,69.00
2019-03-13T04:19:31.507Z,69.90
2019-03-13T04:22:02.696Z,74.50
2019-03-13T04:24:34.376Z,74.50
2019-03-13T04:27:04.576Z,78.80
2019-03-13T04:29:37.272Z,79.20
2019-03-13T04:32:07.854Z,79.70
2019-03-13T04:34:37.956Z,77.10
2019-03-13T04:37:08.962Z,75.40
2019-03-13T04:39:39.083Z,74.40
2019-03-13T04:42:11.414Z,72.90
2019-03-13T04:44:42.618Z,72.80
2019-03-13T04:47:13.329Z,71.90
2019-03-13T04:49:44.205Z,74.20
2019-03-13T04:52:15.313Z,70.90
2019-03-13T04:54:45.423Z,72.40
2019-03-13T04:57:15.645Z,70.60
2019-03-13T04:59:46.068Z,75.60
2019-03-13T05:02:16.308Z,76.10
2019-03-13T05:04:46.601Z,80.90
2019-03-13T05:07:16.709Z,81.10
2019-03-13T05:09:47.135Z,81.30
2019-03-13T05:12:18.576Z,82.50
2019-03-13T05:14:48.654Z,88.50
2019-03-13T05:17:18.850Z,84.50
2019-03-13T05:19:50.412Z,81.30
2019-03-13T05:22:20.518Z,82.90
2019-03-13T05:24:50.849Z,81.50
2019-03-13T05:27:20.953Z,80.50
2019-03-13T05:29:53.928Z,81.40
2019-03-13T05:32:24.070Z,80.10
2019-03-13T05:34:55.007Z,81.10
2019-03-13T05:37:25.165Z,82.10
2019-03-13T05:39:58.647Z,84.10
2019-03-13T05:42:28.748Z,82.80
2019-03-13T05:44:59.367Z,84.60
2019-03-13T05:47:29.790Z,79.40
2019-03-13T05:49:59.915Z,77.00
2019-03-13T05:52:30.138Z,78.50
2019-03-13T05:55:00.373Z,73.20
2019-03-13T05:57:30.614Z,76.30
2019-03-13T06:00:00.762Z,80.10
2019-03-13T06:02:30.880Z,80.10
2019-03-13T06:05:02.977Z,78.50
2019-03-13T06:07:37.930Z,82.60
2019-03-13T06:10:08.116Z,80.20
2019-03-13T06:12:40.592Z,82.80
2019-03-13T06:15:11.374Z,83.80
2019-03-13T06:17:41.849Z,85.80
2019-03-13T06:20:13.653Z,84.30
2019-03-13T06:22:45.024Z,84.70
2019-03-13T06:25:15.687Z,78.80
2019-03-13T06:27:46.659Z,77.90
2019-03-13T06:30:18.916Z,76.40
2019-03-13T06:32:49.664Z,77.10
2019-03-13T06:35:19.803Z,74.10
2019-03-13T06:37:49.937Z,70.90
2019-03-13T06:40:21.362Z,69.90
2019-03-13T06:42:52.901Z,70.80
2019-03-13T06:45:23.467Z,68.70
2019-03-13T06:47:57.784Z,69.50
2019-03-13T06:50:28.214Z,72.50
2019-03-13T06:52:58.334Z,67.00
2019-03-13T06:55:30.791Z,63.90
2019-03-13T06:58:01.395Z,63.60
2019-03-13T07:00:58.136Z,61.00
2019-03-13T07:03:43.360Z,59.90
2019-03-13T07:06:31.186Z,59.70
2019-03-13T07:09:19.059Z,59.00
2019-03-13T07:12:00.152Z,54.70
2019-03-13T07:14:39.703Z,52.40
2019-03-13T07:17:16.601Z,55.30
2019-03-13T07:20:05.870Z,55.30
2019-03-13T07:22:57.968Z,51.40
2019-03-13T07:25:46.430Z,50.50
2019-03-13T07:28:32.903Z,48.90
2019-03-13T07:31:13.936Z,50.90
2019-03-13T07:34:08.620Z,47.10
2019-03-13T07:36:48.592Z,48.30
2019-03-13T07:39:43.065Z,44.60
2019-03-13T07:42:44.236Z,41.40
2019-03-13T07:45:42.294Z,42.10
2019-03-13T07:48:23.681Z,43.80
2019-03-13T07:51:11.032Z,38.90
2019-03-13T07:54:03.143Z,42.10
2019-03-13T07:57:00.555Z,37.70
2019-03-13T07:59:49.322Z,37.40
2019-03-13T08:02:24.661Z,38.50
2019-03-13T08:05:03.214Z,42.60
2019-03-13T08:07:50.953Z,39.10
2019-03-13T08:10:40.046Z,41.90
2019-03-13T08:13:27.878Z,44.10
2019-03-13T08:19:11.174Z,41.90
2019-03-13T08:21:59.470Z,42.60
2019-03-13T08:24:51.357Z,40.70
2019-03-13T08:27:35.636Z,41.00
2019-03-13T08:30:25.840Z,41.90
2019-03-13T08:33:17.943Z,43.10
2019-03-13T08:36:05.778Z,37.00
2019-03-13T08:39:02.227Z,38.50
2019-03-13T08:42:00.522Z,39.70
2019-03-13T08:44:43.820Z,35.50
2019-03-13T08:47:42.448Z,35.60
2019-03-13T08:50:23.599Z,33.80
2019-03-13T08:53:14.618Z,34.10
2019-03-13T08:55:56.018Z,34.10
2019-03-13T08:58:48.234Z,35.10
2019-03-13T09:01:37.348Z,33.60
2019-03-13T09:04:26.840Z,33.10
2019-03-13T09:07:14.868Z,33.70
2019-03-13T09:10:10.623Z,32.90
2019-03-13T09:13:14.959Z,30.40
2019-03-13T09:16:13.073Z,29.60
2019-03-13T09:19:30.684Z,31.10
2019-03-13T09:22:12.140Z,31.40
2019-03-13T09:25:11.311Z,29.40
2019-03-13T09:28:12.715Z,32.90
2019-03-13T09:31:00.362Z,33.10
2019-03-13T09:33:45.809Z,37.50
2019-03-13T09:36:33.554Z,37.50
2019-03-13T09:39:33.718Z,37.30
2019-03-13T09:42:23.587Z,37.60
2019-03-13T09:45:11.030Z,35.70
2019-03-13T09:47:50.415Z,34.40
2019-03-13T09:50:43.405Z,30.80
2019-03-13T09:53:44.790Z,29.90
2019-03-13T09:56:35.856Z,32.90
2019-03-13T09:59:43.400Z,29.10
2019-03-13T10:02:47.268Z,27.90
2019-03-13T10:05:28.229Z,28.50
2019-03-13T10:08:05.184Z,27.10
2019-03-13T10:10:57.298Z,27.10
2019-03-13T10:13:36.424Z,26.10
2019-03-13T10:16:24.410Z,25.50
2019-03-13T10:19:26.026Z,26.60
2019-03-13T10:22:13.110Z,27.40
2019-03-13T10:25:05.509Z,24.90
2019-03-13T10:28:09.863Z,24.50
2019-03-13T10:30:57.733Z,25.30
2019-03-13T10:33:38.855Z,24.50
2019-03-13T10:36:34.692Z,23.60
2019-03-13T10:39:29.340Z,22.60
2019-03-13T10:42:18.193Z,22.10
2019-03-13T10:45:02.728Z,22.40
2019-03-13T10:47:52.110Z,22.50
2019-03-13T10:51:00.541Z,23.30
2019-03-13T10:53:46.029Z,23.80
2019-03-13T10:56:39.230Z,23.10
2019-03-13T10:59:45.113Z,20.00
2019-03-13T11:02:30.253Z,20.20
2019-03-13T11:05:22.466Z,18.00
2019-03-13T11:08:06.068Z,17.60
2019-03-13T11:10:52.492Z,18.70
2019-03-13T11:13:32.787Z,18.00
2019-03-13T11:16:20.774Z,19.30
2019-03-13T11:18:57.188Z,19.20
2019-03-13T11:21:58.840Z,18.20
2019-03-13T11:24:56.729Z,17.80
2019-03-13T11:27:37.583Z,18.90
2019-03-13T11:30:14.041Z,19.10
2019-03-13T11:33:03.028Z,19.00
2019-03-13T11:35:40.103Z,19.30
2019-03-13T11:38:27.984Z,19.50
2019-03-13T11:41:19.141Z,17.50
2019-03-13T11:43:56.810Z,19.00
2019-03-13T11:46:57.178Z,19.30
2019-03-13T11:49:46.849Z,19.20
2019-03-13T11:52:51.377Z,20.40
2019-03-13T11:55:30.575Z,22.00
2019-03-13T11:58:19.174Z,21.90
2019-03-13T12:01:17.638Z,24.20
2019-03-13T12:04:10.424Z,23.00
2019-03-13T12:06:54.553Z,24.10
2019-03-13T12:09:43.633Z,21.50
2019-03-13T12:12:30.037Z,21.20
2019-03-13T12:15:36.263Z,22.50
2019-03-13T12:18:14.058Z,22.20
2019-03-13T12:21:02.065Z,21.90
2019-03-13T12:24:01.882Z,27.30
2019-03-13T12:26:50.951Z,37.30
2019-03-13T12:29:42.770Z,42.30
2019-03-13T12:32:23.297Z,42.50
2019-03-13T12:35:02.017Z,46.80
2019-03-13T12:38:00.431Z,37.50
2019-03-13T12:40:55.084Z,32.20
2019-03-13T12:43:51.365Z,29.60
2019-03-13T12:46:49.846Z,26.50
2019-03-13T12:49:38.974Z,27.10
2019-03-13T12:52:38.685Z,26.20
2019-03-13T12:55:43.097Z,27.80
2019-03-13T12:58:32.538Z,22.70
2019-03-13T13:01:17.793Z,24.10
2019-03-13T13:04:05.548Z,25.40
2019-03-13T13:06:55.832Z,23.40
2019-03-13T13:09:53.796Z,25.20
2019-03-13T13:12:52.039Z,31.20
2019-03-13T13:15:51.137Z,26.90
2019-03-13T13:18:52.862Z,29.90
2019-03-13T13:21:23.823Z,36.30
2019-03-13T13:23:55.507Z,43.80
2019-03-13T13:26:25.755Z,57.20
2019-03-13T13:28:55.988Z,53.70
2019-03-13T13:31:26.185Z,40.70
2019-03-13T13:33:56.303Z,43.80
2019-03-13T13:36:27.247Z,42.40
2019-03-13T13:38:57.869Z,41.50
2019-03-13T13:41:27.974Z,37.30
2019-03-13T13:43:58.371Z,41.20
2019-03-13T13:46:30.685Z,37.90
2019-03-13T13:49:00.842Z,39.20
2019-03-13T13:51:32.741Z,35.80
2019-03-13T13:54:03.945Z,29.40
2019-03-13T13:56:34.559Z,34.70
2019-03-13T13:59:05.183Z,29.80
2019-03-13T14:01:39.780Z,26.30
2019-03-13T14:04:15.639Z,25.20
2019-03-13T14:06:47.763Z,22.20
2019-03-13T14:09:18.214Z,19.80
2019-03-13T14:11:52.719Z,19.30
2019-03-13T14:14:26.075Z,19.60
2019-03-13T14:16:56.481Z,18.00
2019-03-13T14:19:27.917Z,16.20
2019-03-13T14:22:04.119Z,17.10
2019-03-13T14:24:39.485Z,16.70
2019-03-13T14:27:14.412Z,14.50
2019-03-13T14:29:41.805Z,15.20
2019-03-13T14:32:12.725Z,12.80
2019-03-13T14:34:52.844Z,11.60
2019-03-13T14:37:22.980Z,13.70
2019-03-13T14:39:53.155Z,14.70
2019-03-13T14:42:23.900Z,14.20
2019-03-13T14:44:59.947Z,17.90
2019-03-13T14:47:33.218Z,18.90
2019-03-13T14:50:07.087Z,18.60
2019-03-13T14:52:39.987Z,19.00
2019-03-13T14:55:13.943Z,19.20
2019-03-13T14:57:44.135Z,19.80
2019-03-13T15:00:18.561Z,20.30
2019-03-13T15:02:48.955Z,20.80
2019-03-13T15:05:19.469Z,21.30
2019-03-13T15:07:49.904Z,21.80
2019-03-13T15:10:20.710Z,22.00
2019-03-13T15:12:53.635Z,22.30
2019-03-13T15:15:26.543Z,22.40
2019-03-13T15:17:56.736Z,21.10
2019-03-13T15:20:26.902Z,20.80
2019-03-13T15:22:57.041Z,19.80
2019-03-13T15:25:27.253Z,20.70
2019-03-13T15:27:57.439Z,21.50
2019-03-13T15:30:27.645Z,21.90
2019-03-13T15:32:57.845Z,22.00
2019-03-13T15:35:28.025Z,22.90
2019-03-13T15:37:58.172Z,23.10
2019-03-13T15:40:28.308Z,22.60
2019-03-13T15:42:58.530Z,21.30
2019-03-13T15:45:29.120Z,22.10
2019-03-13T15:47:59.279Z,22.50
2019-03-13T15:50:29.442Z,23.80
2019-03-13T15:52:59.780Z,22.70
2019-03-13T15:55:30.045Z,23.80
2019-03-13T15:58:00.240Z,23.80
2019-03-13T16:00:30.433Z,24.10
2019-03-13T16:03:00.676Z,25.00
2019-03-13T16:05:31.985Z,24.70
2019-03-13T16:08:02.220Z,23.80
2019-03-13T16:10:32.735Z,24.20
2019-03-13T16:13:06.204Z,23.60
2019-03-13T16:15:37.937Z,24.70
2019-03-13T16:18:08.226Z,24.90
2019-03-13T16:20:43.212Z,25.10
2019-03-13T16:23:17.270Z,24.80
2019-03-13T16:25:54.407Z,25.10
2019-03-13T16:28:24.940Z,25.10
2019-03-13T16:30:55.709Z,25.90
2019-03-13T16:33:26.110Z,26.50
2019-03-13T16:35:56.820Z,26.30
2019-03-13T16:38:30.940Z,26.80
2019-03-13T16:41:02.536Z,26.40
2019-03-13T16:43:34.097Z,26.70
2019-03-13T16:46:09.616Z,25.80
2019-03-13T16:48:41.840Z,27.50
2019-03-13T16:51:11.999Z,27.40
2019-03-13T16:53:42.201Z,27.80
2019-03-13T16:56:14.431Z,27.90
2019-03-13T16:58:44.664Z,28.10
2019-03-13T17:01:15.106Z,28.90
2019-03-13T17:03:47.935Z,29.50
2019-03-13T17:06:18.042Z,30.80
2019-03-13T17:08:48.188Z,31.00
2019-03-13T17:11:18.368Z,30.30
2019-03-13T17:14:23.843Z,30.70
2019-03-13T17:19:30.201Z,29.70
2019-03-13T17:22:00.423Z,30.40
2019-03-13T17:24:32.586Z,30.00
2019-03-13T17:27:02.765Z,31.10
2019-03-13T17:29:34.643Z,31.40
2019-03-13T17:32:05.250Z,31.30
2019-03-13T17:34:36.487Z,30.00
2019-03-13T17:37:07.579Z,30.90
2019-03-13T17:39:37.783Z,30.20
2019-03-13T17:42:07.934Z,29.90
2019-03-13T17:44:41.157Z,30.50
2019-03-13T17:47:11.863Z,30.40
2019-03-13T17:49:43.186Z,30.30
2019-03-13T17:52:14.788Z,30.00
2019-03-13T17:54:45.245Z,29.70
2019-03-13T17:57:15.402Z,30.00
2019-03-13T17:59:50.424Z,30.00
2019-03-13T18:02:23.249Z,29.80
2019-03-13T18:04:54.698Z,29.70
2019-03-13T18:07:24.879Z,29.90
2019-03-13T18:09:56.009Z,29.10
2019-03-13T18:12:26.431Z,29.80
2019-03-13T18:14:58.563Z,30.90
2019-03-13T18:17:30.500Z,31.10
2019-03-13T18:20:02.481Z,33.40
2019-03-13T18:22:33.818Z,33.00
2019-03-13T18:25:04.897Z,35.70
2019-03-13T18:27:36.822Z,36.90
2019-03-13T18:30:10.354Z,40.70
2019-03-13T18:32:42.103Z,38.60
2019-03-13T18:35:13.786Z,39.80
2019-03-13T18:37:44.646Z,40.20
2019-03-13T18:40:15.244Z,40.60
2019-03-13T18:42:52.185Z,40.50
2019-03-13T18:45:21.596Z,43.70
2019-03-13T18:47:51.818Z,45.30
2019-03-13T18:50:22.693Z,45.30
2019-03-13T18:52:54.236Z,46.60
2019-03-13T18:55:24.853Z,47.80
2019-03-13T18:57:55.341Z,47.60
2019-03-13T19:00:27.748Z,52.10
2019-03-13T19:03:00.202Z,55.00
2019-03-13T19:05:30.711Z,60.20
2019-03-13T19:08:01.200Z,59.30
2019-03-13T19:10:32.898Z,67.80
2019-03-13T19:13:03.511Z,67.50
2019-03-13T19:15:34.003Z,69.20
2019-03-13T19:18:05.009Z,68.50
2019-03-13T19:20:36.799Z,75.10
2019-03-13T19:23:14.210Z,77.70
2019-03-13T19:25:44.278Z,75.90
2019-03-13T19:28:17.288Z,79.70
2019-03-13T19:30:47.923Z,79.10
2019-03-13T19:33:18.110Z,85.70
2019-03-13T19:35:48.237Z,81.60
2019-03-13T19:38:18.950Z,82.10
2019-03-13T19:40:49.322Z,81.80
2019-03-13T19:43:28.600Z,82.30
2019-03-13T19:45:58.862Z,82.50
2019-03-13T19:48:30.358Z,84.20
2019-03-13T19:51:00.739Z,87.60
2019-03-13T19:53:30.944Z,85.50
2019-03-13T19:56:01.260Z,83.50
2019-03-13T19:58:33.253Z,85.00
2019-03-13T20:01:06.186Z,85.00
2019-03-13T20:03:38.499Z,85.40
2019-03-13T20:06:10.894Z,85.30
2019-03-13T20:08:43.390Z,85.90
2019-03-13T20:11:14.028Z,87.60
2019-03-13T20:13:44.234Z,82.50
2019-03-13T20:16:16.813Z,82.30
2019-03-13T20:18:49.953Z,82.90
2019-03-13T20:21:20.246Z,85.10
2019-03-13T20:23:51.045Z,84.30
2019-03-13T20:26:21.370Z,83.60
2019-03-13T20:28:51.751Z,88.80
2019-03-13T20:31:22.447Z,88.80
2019-03-13T20:33:53.724Z,90.50
2019-03-13T20:36:24.568Z,88.80
2019-03-13T20:38:55.177Z,88.70
2019-03-13T20:41:25.802Z,90.00
2019-03-13T20:43:56.054Z,90.10
2019-03-13T20:46:26.230Z,90.30
2019-03-13T20:48:57.024Z,91.30
2019-03-13T20:51:29.298Z,92.40
2019-03-13T20:54:04.144Z,92.70
2019-03-13T20:56:42.246Z,91.10
2019-03-13T20:59:13.774Z,92.20
2019-03-13T21:01:43.954Z,92.20
2019-03-13T21:04:15.460Z,92.20
2019-03-13T21:06:45.749Z,93.00
2019-03-13T21:09:15.906Z,91.60
2019-03-13T21:11:46.085Z,92.00
2019-03-13T21:14:17.849Z,93.30
2019-03-13T21:16:49.178Z,92.70
2019-03-13T21:19:21.214Z,93.80
2019-03-13T21:21:52.046Z,93.30
2019-03-13T21:24:22.176Z,93.20
2019-03-13T21:26:53.879Z,93.10
2019-03-13T21:29:25.611Z,92.90
2019-03-13T21:31:57.345Z,92.50
2019-03-13T21:34:28.503Z,91.70
2019-03-13T21:37:00.900Z,92.30
2019-03-13T21:39:34.850Z,93.40
2019-03-13T21:42:04.969Z,92.70
2019-03-13T21:44:42.778Z,91.20
2019-03-13T21:51:09.943Z,92.20
2019-03-13T21:53:40.995Z,93.40
2019-03-13T21:56:12.764Z,93.30
2019-03-13T21:58:43.794Z,94.50
2019-03-13T22:01:19.814Z,95.60
2019-03-13T22:03:49.672Z,95.70
2019-03-13T22:06:28.499Z,97.30
2019-03-13T22:08:59.622Z,97.20
2019-03-13T22:11:31.375Z,97.70
2019-03-13T22:14:03.055Z,96.80
2019-03-13T22:16:33.162Z,97.60
2019-03-13T22:19:12.594Z,97.50
2019-03-13T22:21:42.886Z,97.30
2019-03-13T22:24:16.241Z,97.30
2019-03-13T22:26:48.459Z,97.40
2019-03-13T22:29:18.696Z,98.30
2019-03-13T22:31:48.875Z,98.00
2019-03-13T22:34:22.492Z,97.40
2019-03-13T22:36:52.627Z,96.40
2019-03-13T22:39:25.091Z,95.70
2019-03-13T22:41:57.312Z,95.90
2019-03-13T22:44:29.191Z,97.00
2019-03-13T22:47:05.149Z,96.50
2019-03-13T22:49:36.934Z,96.30
2019-03-13T22:52:12.206Z,96.90
2019-03-13T22:54:42.530Z,93.40
2019-03-13T22:57:12.679Z,94.60
2019-03-13T22:59:43.633Z,94.20
2019-03-13T23:02:14.028Z,92.70
2019-03-13T23:04:57.618Z,94.30
2019-03-13T23:07:28.598Z,95.50
2019-03-13T23:10:04.678Z,96.30
2019-03-13T23:12:37.260Z,94.00
2019-03-13T23:15:09.092Z,93.40
2019-03-13T23:17:39.591Z,94.10
2019-03-13T23:20:09.705Z,92.80
2019-03-13T23:22:40.018Z,94.20
2019-03-13T23:25:10.418Z,95.20
2019-03-13T23:27:40.675Z,94.70
2019-03-13T23:30:16.639Z,94.60
2019-03-13T23:35:27.481Z,95.20
2019-03-13T23:38:00.645Z,95.30
2019-03-13T23:40:32.083Z,93.90
2019-03-13T23:43:04.087Z,95.20
2019-03-13T23:45:36.399Z,95.50
2019-03-13T23:48:12.234Z,95.40
2019-03-13T23:50:43.367Z,96.40
2019-03-13T23:53:13.514Z,95.00
2019-03-13T23:55:43.783Z,96.00
2019-03-13T23:58:14.325Z,95.10
